Kezdőlap
METAR-TAF:

METAR-TAF

Repülőterek :

Lake Charles, Louisiana, Amerikai Egyesült Államok

földrajzi szélesség: 30-13N, földrajzi hosszúság: 093-09W, magasság: 4 m

Jelenlegi meteorológiai megfigyelések

A jelentés 28 perccel ezelõtt készült, 14:45 UTC
Nyugati szél 5 kt
Hőmérséklet 31°C
Páratartalom 66%
Légköri nyomás 1022 hPa
Látótávolság: 16.1 km
Szakadozott felhőzet 2500 lábon

METAR: KCWF 131445Z 27005KT 10SM BKN025 31/24 A3019

Idő: 10:13 (15:13 UTC)


TAF: hiányzik

Meteorológiai megfigyelések és előrejelzések több, mint 4000 repülőtéren (METAR és TAF jelentéseket).

A térképen piros és sárga pontok jelzik az elérhető meteorológiai állomásokat.

Mozgassa az egeret a pont fölött, hogy megjelenjen az állomás neve.

Azután kattintson az időjárási megfigyelések és előrejelzések megtekintéséhez.

A térkép megváltoztatása: kattintson a fekete keresztel jelölt zöld gombra ráközelítéshez, a vonallal jelölt zöld gombra távolításhoz, vagy a zöld nyilakra a szomszédos térképek eléréséhez.


METAR-TAF: